Time;durP1;ratioP1;P1;durP2;ratioP2;P2;SDS_P1;SDS_P2;PMS_P1;PMS_P2;Temp;Humidity;BMP_temperature;BMP_pressure;BME280_temperature;BME280_humidity;BME280_pressure;Samples;Min_cycle;Max_cycle;Signal;HPM_P1;HPM_P2
2021/03/03 00:00:39;;;;;;;15.80;10.90;;;18.30;99.90;;;;;;5050806;28;20104;-60
2021/03/03 00:03:05;;;;;;;15.02;11.45;;;18.30;99.90;;;;;;5051600;28;20075;-60
2021/03/03 00:05:31;;;;;;;14.95;10.93;;;18.30;99.90;;;;;;5051023;28;20044;-60
2021/03/03 00:07:57;;;;;;;15.65;11.27;;;18.30;99.90;;;;;;5050752;28;20033;-60
2021/03/03 00:10:23;;;;;;;13.95;11.20;;;18.20;99.90;;;;;;5050742;28;20032;-60
2021/03/03 00:12:48;;;;;;;15.30;11.27;;;18.20;99.90;;;;;;5050552;28;20032;-59
2021/03/03 00:15:15;;;;;;;15.98;11.65;;;18.20;99.90;;;;;;5050718;28;20083;-60
2021/03/03 00:17:40;;;;;;;12.65;10.43;;;18.20;99.90;;;;;;5051221;28;20025;-59
2021/03/03 00:20:07;;;;;;;12.52;10.43;;;18.20;99.90;;;;;;5050630;28;20108;-60
2021/03/03 00:22:33;;;;;;;14.68;11.45;;;18.20;99.90;;;;;;5050762;28;20029;-60
2021/03/03 00:24:58;;;;;;;14.25;11.48;;;18.10;99.90;;;;;;5051131;28;20548;-60
2021/03/03 00:27:24;;;;;;;14.85;11.80;;;18.10;99.90;;;;;;5050349;28;20056;-60
2021/03/03 00:29:49;;;;;;;12.70;10.95;;;18.10;99.90;;;;;;5050547;28;20040;-60
2021/03/03 00:32:15;;;;;;;13.27;11.23;;;18.10;99.90;;;;;;5050973;28;20025;-59
2021/03/03 00:34:41;;;;;;;13.70;11.13;;;18.10;99.90;;;;;;5051195;28;20029;-60
2021/03/03 00:37:06;;;;;;;20.05;12.43;;;18.00;99.90;;;;;;5050848;28;20032;-60
2021/03/03 00:39:32;;;;;;;14.75;10.88;;;18.10;99.90;;;;;;5050444;28;20035;-60
2021/03/03 00:41:58;;;;;;;14.32;11.48;;;18.00;99.90;;;;;;5051091;28;20017;-61
2021/03/03 00:44:24;;;;;;;13.70;11.60;;;18.00;99.90;;;;;;5050616;28;20033;-60
2021/03/03 00:46:49;;;;;;;13.23;10.88;;;18.00;99.90;;;;;;5050417;28;20021;-60
2021/03/03 00:49:15;;;;;;;12.68;10.98;;;18.00;99.90;;;;;;5050412;28;20032;-60
2021/03/03 00:51:41;;;;;;;14.68;12.18;;;18.00;99.90;;;;;;5050184;28;20037;-60
2021/03/03 00:54:07;;;;;;;12.68;11.23;;;18.00;99.90;;;;;;5051099;28;20035;-60
2021/03/03 00:56:33;;;;;;;14.60;11.93;;;18.00;99.90;;;;;;5054260;28;20028;-60
2021/03/03 00:58:58;;;;;;;16.13;12.20;;;18.00;99.90;;;;;;5054454;28;20025;-60
2021/03/03 01:01:24;;;;;;;14.63;12.13;;;18.00;99.90;;;;;;5053679;28;20025;-60
2021/03/03 01:03:49;;;;;;;14.18;11.80;;;17.90;99.90;;;;;;5054611;28;20511;-58
2021/03/03 01:06:15;;;;;;;13.32;11.93;;;17.90;99.90;;;;;;5054427;28;20484;-60
2021/03/03 01:08:41;;;;;;;12.70;11.27;;;17.90;99.90;;;;;;5054628;28;20465;-61
2021/03/03 01:11:07;;;;;;;18.05;11.85;;;17.90;99.90;;;;;;5054800;28;20473;-60
2021/03/03 01:13:36;;;;;;;13.85;11.50;;;17.90;99.90;;;;;;5053700;28;20432;-60
2021/03/03 01:16:03;;;;;;;14.18;11.55;;;17.90;99.90;;;;;;5053683;28;20033;-60
2021/03/03 01:18:29;;;;;;;14.77;11.80;;;17.90;99.90;;;;;;5053615;28;20033;-58
2021/03/03 01:20:54;;;;;;;14.88;12.20;;;17.90;99.90;;;;;;5053927;28;20033;-60
2021/03/03 01:23:20;;;;;;;16.55;12.20;;;17.90;99.90;;;;;;5053740;28;20040;-60
2021/03/03 01:25:46;;;;;;;15.05;12.15;;;17.90;99.90;;;;;;5054126;28;20044;-59
2021/03/03 01:28:11;;;;;;;15.70;12.10;;;17.90;99.90;;;;;;5053596;28;20104;-59
2021/03/03 01:30:37;;;;;;;15.50;12.50;;;17.80;99.90;;;;;;5053627;28;20029;-60
2021/03/03 01:33:04;;;;;;;15.20;12.00;;;17.80;99.90;;;;;;5053840;28;20033;-60
2021/03/03 01:35:29;;;;;;;15.15;11.38;;;17.80;99.90;;;;;;5053754;28;20943;-60
2021/03/03 01:37:55;;;;;;;14.25;11.68;;;17.80;99.90;;;;;;5053575;28;20033;-60
2021/03/03 01:40:21;;;;;;;16.48;12.95;;;17.80;99.90;;;;;;5052513;28;20029;-60
2021/03/03 01:42:46;;;;;;;14.18;11.43;;;17.80;99.90;;;;;;5053601;28;20029;-61
2021/03/03 01:45:13;;;;;;;15.00;12.20;;;17.80;99.90;;;;;;5053385;28;20082;-61
2021/03/03 01:47:39;;;;;;;15.63;12.43;;;17.80;99.90;;;;;;5054165;28;20052;-60
2021/03/03 01:50:07;;;;;;;16.92;12.98;;;17.80;99.90;;;;;;5053046;28;20109;-60
2021/03/03 01:52:34;;;;;;;14.55;12.35;;;17.80;99.90;;;;;;5053183;28;20112;-60
2021/03/03 01:55:01;;;;;;;15.88;13.02;;;17.70;99.90;;;;;;5053691;28;20060;-60
2021/03/03 01:57:26;;;;;;;14.77;11.95;;;17.70;99.90;;;;;;5053319;28;20366;-60
2021/03/03 01:59:52;;;;;;;15.43;12.55;;;17.70;99.90;;;;;;5052815;28;20032;-60
2021/03/03 02:02:18;;;;;;;15.35;12.90;;;17.70;99.90;;;;;;5053198;28;20024;-60
2021/03/03 02:04:43;;;;;;;14.45;12.02;;;17.70;99.90;;;;;;5053411;28;20040;-60
2021/03/03 02:07:22;;;;;;;15.25;12.63;;;17.70;99.90;;;;;;5053363;28;20021;-60
2021/03/03 02:10:01;;;;;;;15.18;12.18;;;17.70;99.90;;;;;;5053280;28;20033;-60
2021/03/03 02:12:56;;;;;;;14.98;13.05;;;17.70;99.90;;;;;;5051714;28;20040;-60
2021/03/03 02:15:23;;;;;;;15.90;12.32;;;17.70;99.90;;;;;;5042634;28;20124;-60
2021/03/03 02:17:51;;;;;;;15.23;12.45;;;17.70;99.90;;;;;;5053002;28;20029;-60
2021/03/03 02:20:18;;;;;;;14.10;12.13;;;17.70;99.90;;;;;;5052553;28;20119;-60
2021/03/03 02:22:55;;;;;;;15.63;12.50;;;17.70;99.90;;;;;;5052822;28;20036;-60
2021/03/03 02:25:30;;;;;;;17.58;13.10;;;17.70;99.90;;;;;;5052982;28;20036;-59
2021/03/03 02:28:00;;;;;;;16.20;13.32;;;17.70;99.90;;;;;;5052551;28;20019;-60
2021/03/03 02:30:28;;;;;;;17.35;12.73;;;17.60;99.90;;;;;;5067571;28;20024;-60
2021/03/03 02:32:55;;;;;;;18.60;12.98;;;17.60;99.90;;;;;;5052678;28;20472;-60
2021/03/03 02:35:21;;;;;;;16.58;12.27;;;17.60;99.90;;;;;;5052749;28;20025;-60
2021/03/03 02:37:48;;;;;;;17.05;13.25;;;17.60;99.90;;;;;;5052292;28;20190;-60
2021/03/03 02:40:15;;;;;;;17.10;13.60;;;17.60;99.90;;;;;;5052614;28;20376;-60
2021/03/03 02:42:41;;;;;;;15.70;13.57;;;17.60;99.90;;;;;;5051932;28;20500;-60
2021/03/03 02:45:12;;;;;;;15.43;12.77;;;17.50;99.90;;;;;;5052842;28;20040;-60
2021/03/03 02:47:39;;;;;;;15.25;12.23;;;17.50;99.90;;;;;;5052930;28;20405;-59
2021/03/03 02:50:07;;;;;;;15.15;12.70;;;17.50;99.90;;;;;;5052159;28;20104;-59
2021/03/03 02:53:02;;;;;;;15.68;13.20;;;17.50;99.90;;;;;;5052098;28;20024;-60
2021/03/03 02:55:30;;;;;;;19.83;12.88;;;17.50;99.90;;;;;;5047544;28;20041;-60
2021/03/03 02:57:57;;;;;;;14.50;12.52;;;17.50;99.90;;;;;;5052350;28;20021;-60
2021/03/03 03:00:26;;;;;;;16.23;13.32;;;17.50;99.90;;;;;;5050884;28;20083;-60
2021/03/03 03:03:09;;;;;;;15.18;12.10;;;17.50;99.90;;;;;;5051901;28;20033;-60
2021/03/03 03:05:35;;;;;;;16.40;13.23;;;17.50;99.90;;;;;;5032090;28;20037;-60
2021/03/03 03:08:01;;;;;;;14.43;12.38;;;17.50;99.90;;;;;;5032464;28;20029;-60
2021/03/03 03:10:28;;;;;;;16.05;12.80;;;17.50;99.90;;;;;;5042511;28;20029;-60
2021/03/03 03:12:56;;;;;;;14.52;12.05;;;17.50;99.90;;;;;;5051865;28;20037;-60
2021/03/03 03:15:25;;;;;;;15.73;11.98;;;17.50;99.90;;;;;;5052065;28;20421;-60
2021/03/03 03:17:55;;;;;;;13.20;11.45;;;17.60;99.90;;;;;;5051386;28;20048;-59
2021/03/03 03:20:21;;;;;;;15.40;11.98;;;17.50;99.90;;;;;;5051481;28;20021;-60
2021/03/03 03:22:48;;;;;;;16.80;12.82;;;17.50;99.90;;;;;;5051628;28;20094;-60
2021/03/03 03:25:15;;;;;;;15.15;12.65;;;17.50;99.90;;;;;;5051840;28;20052;-60
2021/03/03 03:27:46;;;;;;;16.52;12.27;;;17.40;99.90;;;;;;5051702;28;20009;-60
2021/03/03 03:30:13;;;;;;;15.00;12.30;;;17.50;99.90;;;;;;5051050;28;20028;-60
2021/03/03 03:32:40;;;;;;;13.75;12.20;;;17.40;99.90;;;;;;5051947;28;20029;-60
2021/03/03 03:35:07;;;;;;;16.60;12.77;;;17.40;99.90;;;;;;5052029;28;20413;-60
2021/03/03 03:37:34;;;;;;;16.10;12.93;;;17.40;99.90;;;;;;5051609;28;20114;-60
2021/03/03 03:40:00;;;;;;;14.90;12.40;;;17.40;99.90;;;;;;5051010;28;20640;-60
2021/03/03 03:42:28;;;;;;;15.85;12.77;;;17.40;99.90;;;;;;5051090;28;20803;-60
2021/03/03 03:44:55;;;;;;;14.15;12.35;;;17.40;99.90;;;;;;5052036;28;20453;-60
2021/03/03 03:47:21;;;;;;;15.10;12.32;;;17.40;99.90;;;;;;5050961;28;20107;-59
2021/03/03 03:49:48;;;;;;;15.02;12.73;;;17.40;99.90;;;;;;5051313;28;20166;-60
2021/03/03 03:52:17;;;;;;;15.93;13.25;;;17.40;99.90;;;;;;5050996;28;20029;-60
2021/03/03 03:54:53;;;;;;;15.43;12.75;;;17.30;99.90;;;;;;5051511;28;20025;-61
2021/03/03 03:57:20;;;;;;;16.00;12.77;;;17.40;99.90;;;;;;5050922;28;20052;-60
2021/03/03 03:59:46;;;;;;;15.95;12.73;;;17.40;99.90;;;;;;5050323;28;20033;-60
2021/03/03 04:02:12;;;;;;;14.07;11.93;;;17.30;99.90;;;;;;5050758;28;20029;-60
2021/03/03 04:04:38;;;;;;;15.05;12.40;;;17.30;99.90;;;;;;5051834;28;20041;-60
2021/03/03 04:07:04;;;;;;;14.82;11.55;;;17.30;99.90;;;;;;5051311;28;20422;-61
2021/03/03 04:09:30;;;;;;;14.98;12.27;;;17.30;99.90;;;;;;5050946;28;20396;-60
2021/03/03 04:11:56;;;;;;;14.93;12.18;;;17.30;99.90;;;;;;5050975;28;20033;-60
2021/03/03 04:14:23;;;;;;;14.65;12.02;;;17.30;99.90;;;;;;5050861;28;20449;-60
2021/03/03 04:16:48;;;;;;;17.20;12.05;;;17.30;99.90;;;;;;5066421;28;20033;-59
2021/03/03 04:19:14;;;;;;;14.82;12.18;;;17.30;99.90;;;;;;5048695;28;20027;-60
2021/03/03 04:21:39;;;;;;;15.13;11.93;;;17.30;99.90;;;;;;5050893;28;20060;-60
2021/03/03 04:24:06;;;;;;;15.38;12.20;;;17.30;99.90;;;;;;5051202;28;20033;-60
2021/03/03 04:26:31;;;;;;;15.07;11.93;;;17.30;99.90;;;;;;5050973;28;20036;-60
2021/03/03 04:28:57;;;;;;;18.15;12.38;;;17.30;99.90;;;;;;5051317;28;20029;-60
2021/03/03 04:31:23;;;;;;;15.63;11.55;;;17.30;99.90;;;;;;5054857;28;20504;-60
2021/03/03 04:33:48;;;;;;;15.02;11.00;;;17.30;99.90;;;;;;5055258;28;20029;-60
2021/03/03 04:36:14;;;;;;;17.85;11.38;;;17.20;99.90;;;;;;5054884;28;20130;-60
2021/03/03 04:38:39;;;;;;;14.57;11.75;;;17.20;99.90;;;;;;5054286;28;20040;-60
2021/03/03 04:41:05;;;;;;;15.23;11.63;;;17.30;99.90;;;;;;5055231;28;20028;-60
2021/03/03 04:43:31;;;;;;;15.43;11.25;;;17.20;99.90;;;;;;5053953;28;20481;-60
2021/03/03 04:45:56;;;;;;;17.05;11.50;;;17.20;99.90;;;;;;5055226;28;20036;-60
2021/03/03 04:48:22;;;;;;;14.48;11.80;;;17.20;99.90;;;;;;5054503;28;20028;-59
2021/03/03 04:50:47;;;;;;;14.25;11.50;;;17.20;99.90;;;;;;5069765;28;20025;-59
2021/03/03 04:53:13;;;;;;;15.10;11.32;;;17.20;99.90;;;;;;5053709;28;20035;-60
2021/03/03 04:55:39;;;;;;;13.93;11.40;;;17.20;99.90;;;;;;5055039;28;20146;-59
2021/03/03 04:58:04;;;;;;;17.90;12.15;;;17.10;99.90;;;;;;5054133;28;20029;-60
2021/03/03 05:00:30;;;;;;;16.10;11.23;;;17.10;99.90;;;;;;5053552;28;20029;-59
2021/03/03 05:02:56;;;;;;;14.07;12.15;;;17.10;99.90;;;;;;5054563;28;20017;-60
2021/03/03 05:05:21;;;;;;;15.15;11.23;;;17.10;99.90;;;;;;5054065;28;20037;-60
2021/03/03 05:07:47;;;;;;;13.07;11.07;;;17.10;99.90;;;;;;5054429;28;20021;-59
2021/03/03 05:10:13;;;;;;;13.77;10.50;;;17.10;99.90;;;;;;5054347;28;20057;-59
2021/03/03 05:12:39;;;;;;;13.63;10.95;;;17.10;99.90;;;;;;5054330;28;20044;-60
2021/03/03 05:15:05;;;;;;;14.43;10.77;;;17.00;99.90;;;;;;5054444;28;20021;-59
2021/03/03 05:17:30;;;;;;;13.10;11.07;;;17.10;99.90;;;;;;5053767;28;20507;-60
2021/03/03 05:19:56;;;;;;;11.63;10.27;;;17.10;99.90;;;;;;5053909;28;20041;-61
2021/03/03 05:22:22;;;;;;;13.27;10.63;;;17.00;99.90;;;;;;5053018;28;20028;-61
2021/03/03 05:24:47;;;;;;;13.13;10.38;;;17.00;99.90;;;;;;5053781;28;20107;-60
2021/03/03 05:27:13;;;;;;;13.00;10.80;;;17.10;99.90;;;;;;5053642;28;20025;-60
2021/03/03 05:29:38;;;;;;;12.82;10.40;;;17.10;99.90;;;;;;5053780;28;20029;-60
2021/03/03 05:32:05;;;;;;;14.30;11.07;;;17.10;99.90;;;;;;5054203;28;20025;-60
2021/03/03 05:34:30;;;;;;;11.82;10.52;;;17.00;99.90;;;;;;5053779;28;20032;-60
2021/03/03 05:36:56;;;;;;;15.15;10.43;;;17.00;99.90;;;;;;5053998;28;20021;-60
2021/03/03 05:39:21;;;;;;;12.82;10.23;;;17.00;99.90;;;;;;5053716;28;20426;-60
2021/03/03 05:41:47;;;;;;;14.52;11.00;;;17.10;99.90;;;;;;5052950;28;20024;-60
2021/03/03 05:44:13;;;;;;;14.50;10.40;;;17.00;99.90;;;;;;5052686;28;20112;-61
2021/03/03 05:46:39;;;;;;;13.30;10.02;;;17.00;99.90;;;;;;5053996;28;20087;-60
2021/03/03 05:49:05;;;;;;;13.60;10.70;;;17.00;99.90;;;;;;5053886;28;20029;-60
2021/03/03 05:51:32;;;;;;;13.73;10.30;;;17.00;99.90;;;;;;5053298;28;20047;-60
2021/03/03 05:54:01;;;;;;;14.73;10.15;;;17.00;99.90;;;;;;5052887;28;20481;-60
2021/03/03 05:56:27;;;;;;;12.45;10.00;;;16.90;99.90;;;;;;5068758;28;20060;-60
2021/03/03 05:58:54;;;;;;;12.98;10.35;;;16.90;99.90;;;;;;5053084;28;20032;-60
2021/03/03 06:01:21;;;;;;;12.13;9.68;;;17.00;99.90;;;;;;5052662;28;20068;-60
2021/03/03 06:03:48;;;;;;;14.45;10.30;;;16.90;99.90;;;;;;5053381;28;20037;-60
2021/03/03 06:06:14;;;;;;;11.80;10.52;;;16.90;99.90;;;;;;5053363;28;20032;-60
2021/03/03 06:08:40;;;;;;;12.57;10.15;;;16.90;99.90;;;;;;5053497;28;20068;-60
2021/03/03 06:11:07;;;;;;;13.00;10.15;;;16.90;99.90;;;;;;5053784;28;20430;-60
2021/03/03 06:13:33;;;;;;;15.32;10.27;;;16.90;99.90;;;;;;5052494;28;20029;-60
2021/03/03 06:15:59;;;;;;;10.77;9.68;;;16.90;99.90;;;;;;5053095;28;20059;-60
2021/03/03 06:18:25;;;;;;;13.48;10.55;;;16.90;99.90;;;;;;5048271;28;20053;-60
2021/03/03 06:20:53;;;;;;;12.65;9.88;;;16.90;99.90;;;;;;5051373;28;20639;-60
2021/03/03 06:23:22;;;;;;;10.95;9.55;;;16.90;99.90;;;;;;5052445;28;20065;-60
2021/03/03 06:26:09;;;;;;;11.00;9.68;;;16.90;99.90;;;;;;5053100;28;20021;-60
2021/03/03 06:28:41;;;;;;;12.73;10.02;;;16.90;99.90;;;;;;5052484;28;20477;-60
2021/03/03 06:31:26;;;;;;;12.13;9.68;;;16.90;99.90;;;;;;5050653;28;20013;-60
2021/03/03 06:33:53;;;;;;;11.13;9.48;;;16.80;99.90;;;;;;5052807;28;20047;-60
2021/03/03 06:36:26;;;;;;;12.20;9.98;;;16.80;99.90;;;;;;5051928;28;20504;-60
2021/03/03 06:38:52;;;;;;;15.25;10.05;;;16.90;99.90;;;;;;5052804;28;20033;-63
2021/03/03 06:41:18;;;;;;;12.98;9.57;;;16.90;99.90;;;;;;5052315;28;20025;-60
2021/03/03 06:43:58;;;;;;;13.05;9.80;;;16.80;99.90;;;;;;5052625;28;20493;-60
2021/03/03 06:46:24;;;;;;;12.88;9.77;;;16.80;99.90;;;;;;5051871;28;20037;-63
2021/03/03 06:48:50;;;;;;;22.70;16.52;;;16.80;99.90;;;;;;5052455;28;20040;-60
2021/03/03 06:51:24;;;;;;;34.28;22.25;;;16.60;99.90;;;;;;5051994;28;20473;-61
2021/03/03 06:53:51;;;;;;;42.25;28.05;;;15.90;99.90;;;;;;5051612;28;20021;-61
2021/03/03 06:56:42;;;;;;;39.10;31.00;;;15.40;99.90;;;;;;5052266;28;20140;-63
2021/03/03 06:59:13;;;;;;;44.05;32.80;;;15.00;99.90;;;;;;5052238;28;20052;-60
2021/03/03 07:01:39;;;;;;;44.70;33.72;;;14.70;99.90;;;;;;5052980;28;20032;-63
2021/03/03 07:04:30;;;;;;;45.42;34.40;;;14.60;99.90;;;;;;5052161;28;20485;-61
2021/03/03 07:07:01;;;;;;;52.00;34.72;;;14.60;99.90;;;;;;5032723;28;20029;-60
2021/03/03 07:09:49;;;;;;;45.53;33.85;;;14.40;99.90;;;;;;5046028;28;20116;-60
2021/03/03 07:12:19;;;;;;;47.83;34.20;;;14.20;99.90;;;;;;5047401;28;20025;-60
2021/03/03 07:14:54;;;;;;;50.50;34.88;;;14.10;99.90;;;;;;5048876;28;20025;-60
2021/03/03 07:17:24;;;;;;;49.30;36.55;;;13.80;99.90;;;;;;5051982;28;20154;-60
2021/03/03 07:19:58;;;;;;;46.22;34.42;;;13.50;99.90;;;;;;5051095;28;20520;-60
2021/03/03 07:22:24;;;;;;;;;;;13.30;99.90;;;;;;5051162;28;20028;-61
2021/03/03 07:25:10;;;;;;;48.20;35.38;;;13.40;99.90;;;;;;5051824;28;19923;-61
2021/03/03 07:27:39;;;;;;;50.05;37.08;;;13.40;99.90;;;;;;5051784;28;20041;-61
2021/03/03 07:30:05;;;;;;;52.90;36.55;;;13.40;99.90;;;;;;5051631;28;20029;-61
2021/03/03 07:32:30;;;;;;;52.08;36.45;;;13.30;99.90;;;;;;5051588;28;20048;-62
2021/03/03 07:34:57;;;;;;;51.67;35.78;;;13.30;99.90;;;;;;5052015;28;20021;-62
2021/03/03 07:37:25;;;;;;;51.83;36.92;;;13.20;99.90;;;;;;5051552;28;20104;-60
2021/03/03 07:39:57;;;;;;;55.28;38.22;;;13.10;99.90;;;;;;5051605;28;20420;-59
2021/03/03 07:42:30;;;;;;;49.13;35.97;;;13.10;99.90;;;;;;5050428;28;20461;-59
2021/03/03 07:44:58;;;;;;;27.95;18.27;;;13.20;99.90;;;;;;5050264;28;20037;-60
2021/03/03 07:47:26;;;;;;;26.10;18.50;;;14.00;99.90;;;;;;5042725;28;20127;-62
2021/03/03 07:49:54;;;;;;;24.00;16.27;;;14.70;99.90;;;;;;5046279;28;20037;-63
2021/03/03 07:52:20;;;;;;;23.90;14.48;;;15.20;99.90;;;;;;5049835;28;20053;-63
2021/03/03 07:54:46;;;;;;;17.85;12.50;;;15.50;99.90;;;;;;5050304;28;20033;-66
2021/03/03 07:57:13;;;;;;;17.33;12.75;;;15.70;99.90;;;;;;5050120;28;20028;-66
2021/03/03 07:59:42;;;;;;;16.02;11.00;;;15.90;99.90;;;;;;5050276;28;20078;-61
2021/03/03 08:02:09;;;;;;;13.60;10.75;;;16.00;99.90;;;;;;5051047;28;20067;-63
2021/03/03 08:04:42;;;;;;;17.85;11.18;;;16.20;99.90;;;;;;5050263;28;20099;-63
2021/03/03 08:07:19;;;;;;;17.33;11.32;;;16.30;99.90;;;;;;5050430;28;20029;-63
2021/03/03 08:10:15;;;;;;;17.33;10.88;;;16.40;99.90;;;;;;5049544;28;20024;-62
2021/03/03 08:13:04;;;;;;;15.80;10.98;;;16.60;99.90;;;;;;5050354;28;20158;-66
2021/03/03 08:15:42;;;;;;;16.55;10.50;;;16.70;99.90;;;;;;5044867;28;20477;-68
2021/03/03 08:18:13;;;;;;;16.38;11.15;;;16.80;99.90;;;;;;5048478;28;20086;-67
2021/03/03 08:20:48;;;;;;;17.90;9.80;;;16.80;99.90;;;;;;5050300;28;20039;-67
2021/03/03 08:23:52;;;;;;;14.82;8.80;;;17.00;99.90;;;;;;5040801;28;20033;-65
2021/03/03 08:26:17;;;;;;;21.48;11.38;;;17.10;99.90;;;;;;4988928;28;20034;-68
2021/03/03 08:28:44;;;;;;;26.70;13.20;;;17.40;99.90;;;;;;5030963;28;20044;-68
2021/03/03 08:31:12;;;;;;;25.08;13.07;;;17.40;99.90;;;;;;5049938;28;20476;-66
2021/03/03 08:33:49;;;;;;;24.15;13.05;;;17.40;99.90;;;;;;5051017;28;20075;-66
2021/03/03 08:36:18;;;;;;;22.42;12.98;;;17.50;99.90;;;;;;5050756;28;20401;-67
2021/03/03 08:39:09;;;;;;;22.45;14.13;;;17.60;99.90;;;;;;5050925;28;20059;-65
2021/03/03 08:41:37;;;;;;;24.52;14.65;;;17.70;99.90;;;;;;5043268;28;20044;-66
2021/03/03 08:44:15;;;;;;;23.70;15.27;;;17.80;99.90;;;;;;5050164;28;20033;-64
2021/03/03 08:46:44;;;;;;;29.50;16.85;;;17.90;99.90;;;;;;5050094;28;20033;-65
2021/03/03 08:49:10;;;;;;;27.52;16.52;;;18.00;99.90;;;;;;5050133;28;20064;-67
2021/03/03 08:51:40;;;;;;;28.83;16.00;;;18.00;99.90;;;;;;5050939;28;20052;-65
2021/03/03 08:54:09;;;;;;;27.73;16.25;;;18.10;99.90;;;;;;5050279;28;20469;-65
2021/03/03 08:56:49;;;;;;;29.23;18.45;;;18.20;99.90;;;;;;5050566;28;20033;-66
2021/03/03 08:59:32;;;;;;;29.50;18.60;;;18.30;99.90;;;;;;5050515;28;20079;-67
2021/03/03 09:02:22;;;;;;;33.65;19.88;;;18.40;99.90;;;;;;5046752;28;20051;-66
2021/03/03 09:04:48;;;;;;;36.15;20.30;;;18.60;99.90;;;;;;5049664;28;20040;-66
2021/03/03 09:07:17;;;;;;;32.10;20.17;;;18.60;99.90;;;;;;5048753;28;20385;-64
2021/03/03 09:09:51;;;;;;;33.88;20.73;;;18.50;99.90;;;;;;5050963;28;20098;-64
2021/03/03 09:12:22;;;;;;;33.97;20.30;;;18.70;99.90;;;;;;5050320;28;20032;-68
2021/03/03 09:14:49;;;;;;;34.42;21.15;;;18.70;99.90;;;;;;5050494;28;20509;-65
2021/03/03 09:17:21;;;;;;;34.78;21.00;;;18.80;99.90;;;;;;5053265;28;20025;-65
2021/03/03 09:19:47;;;;;;;32.30;20.73;;;18.90;99.90;;;;;;5054017;28;20450;-66
2021/03/03 09:22:44;;;;;;;35.22;21.50;;;19.00;99.90;;;;;;5053899;28;20112;-67
2021/03/03 09:25:20;;;;;;;38.80;23.75;;;19.00;99.90;;;;;;5053545;28;20036;-66
2021/03/03 09:27:54;;;;;;;35.13;21.17;;;19.10;99.90;;;;;;5054051;28;20021;-67
2021/03/03 09:30:21;;;;;;;36.28;22.35;;;19.20;99.90;;;;;;5053426;28;20202;-67
2021/03/03 09:32:48;;;;;;;33.83;22.20;;;19.30;99.90;;;;;;5052959;28;20051;-68
2021/03/03 09:35:14;;;;;;;42.17;22.30;;;19.40;99.90;;;;;;5052978;28;20421;-67
2021/03/03 09:37:45;;;;;;;39.35;22.35;;;19.50;99.90;;;;;;5054139;28;20033;-67
2021/03/03 09:40:12;;;;;;;33.90;22.63;;;19.50;99.90;;;;;;5053326;28;20017;-68
2021/03/03 09:42:40;;;;;;;33.50;21.65;;;19.60;99.90;;;;;;5053748;28;20052;-66
2021/03/03 09:45:07;;;;;;;31.73;21.25;;;19.70;99.90;;;;;;5053887;28;20025;-66
2021/03/03 09:47:34;;;;;;;34.33;22.15;;;19.80;99.90;;;;;;5052857;28;20476;-67
2021/03/03 09:50:02;;;;;;;36.47;22.13;;;19.80;99.90;;;;;;5053145;28;20763;-66
2021/03/03 09:52:42;;;;;;;34.40;21.85;;;19.90;99.90;;;;;;5053204;28;20036;-65
2021/03/03 09:55:13;;;;;;;35.67;22.02;;;20.00;99.90;;;;;;5053191;28;20481;-66
2021/03/03 09:57:40;;;;;;;32.13;21.83;;;20.10;99.90;;;;;;5052671;28;20107;-68
2021/03/03 10:00:12;;;;;;;34.22;21.90;;;20.20;99.90;;;;;;5053666;28;20027;-69
2021/03/03 10:03:01;;;;;;;35.17;21.10;;;20.20;99.80;;;;;;5061562;28;20439;-66
2021/03/03 10:05:29;;;;;;;31.73;21.63;;;20.30;99.70;;;;;;5032970;28;20049;-67
2021/03/03 10:07:57;;;;;;;31.05;20.38;;;20.40;99.60;;;;;;5051290;28;20021;-66
2021/03/03 10:10:26;;;;;;;34.88;22.15;;;20.40;99.80;;;;;;5052897;28;20029;-66
2021/03/03 10:12:54;;;;;;;32.08;20.58;;;20.50;99.80;;;;;;5051218;28;20128;-64
2021/03/03 10:15:32;;;;;;;32.05;20.30;;;20.60;99.40;;;;;;5052506;28;20028;-63
2021/03/03 10:17:59;;;;;;;32.55;21.00;;;20.70;99.30;;;;;;5053131;28;20055;-64
2021/03/03 10:20:31;;;;;;;33.80;20.98;;;20.70;99.10;;;;;;5052861;28;20025;-64
2021/03/03 10:22:59;;;;;;;35.03;21.02;;;20.80;99.20;;;;;;5052673;28;20029;-64
2021/03/03 10:25:39;;;;;;;34.58;21.63;;;20.80;99.20;;;;;;5052210;28;20504;-64
2021/03/03 10:28:16;;;;;;;32.15;21.63;;;20.80;98.90;;;;;;5052892;28;20027;-65
2021/03/03 10:30:46;;;;;;;35.55;20.65;;;20.80;99.00;;;;;;5052926;28;20108;-63
2021/03/03 10:33:31;;;;;;;31.45;20.75;;;20.80;98.90;;;;;;5053104;28;20021;-65
2021/03/03 10:36:02;;;;;;;34.28;21.08;;;20.80;99.30;;;;;;5052619;28;20746;-66
2021/03/03 10:38:28;;;;;;;31.42;21.38;;;20.80;99.90;;;;;;5052444;28;20112;-67
2021/03/03 10:40:56;;;;;;;30.95;20.52;;;20.80;99.60;;;;;;5051160;28;21866;-65
2021/03/03 10:43:25;;;;;;;34.03;21.38;;;20.80;99.60;;;;;;5047385;28;20099;-67
2021/03/03 10:46:14;;;;;;;31.42;20.45;;;20.80;99.70;;;;;;5048234;28;20531;-66
2021/03/03 10:48:40;;;;;;;29.92;19.52;;;20.80;99.80;;;;;;5052460;28;20036;-69
2021/03/03 10:51:06;;;;;;;33.67;20.17;;;20.80;99.90;;;;;;5052208;28;20100;-67
2021/03/03 10:53:58;;;;;;;29.50;18.88;;;20.80;99.80;;;;;;5052140;28;20460;-70
2021/03/03 10:56:30;;;;;;;28.63;18.95;;;20.90;99.90;;;;;;5051691;28;20039;-64
2021/03/03 10:58:58;;;;;;;29.08;17.83;;;20.90;99.90;;;;;;5052254;28;20037;-67
2021/03/03 11:01:38;;;;;;;27.83;18.77;;;21.00;99.90;;;;;;5051730;28;20143;-68
2021/03/03 11:04:04;;;;;;;28.67;18.10;;;21.00;99.60;;;;;;5052125;28;20029;-68
2021/03/03 11:06:35;;;;;;;24.63;17.42;;;21.00;99.40;;;;;;5051917;28;20032;-67
2021/03/03 11:09:03;;;;;;;28.02;17.10;;;21.00;99.20;;;;;;5051906;28;20033;-67
2021/03/03 11:11:28;;;;;;;24.38;16.50;;;21.00;99.80;;;;;;5051684;28;20438;-66
2021/03/03 11:13:54;;;;;;;27.67;16.10;;;21.10;99.50;;;;;;5052059;28;20104;-67
2021/03/03 11:16:21;;;;;;;24.60;15.63;;;21.10;99.50;;;;;;5051864;28;20029;-68
2021/03/03 11:18:47;;;;;;;25.30;16.42;;;21.10;99.50;;;;;;5051436;28;20025;-66
2021/03/03 11:21:13;;;;;;;21.63;14.88;;;21.10;99.50;;;;;;5050153;28;20028;-66
2021/03/03 11:23:38;;;;;;;23.38;15.25;;;21.20;99.50;;;;;;5050359;28;20048;-70
2021/03/03 11:26:04;;;;;;;21.10;14.43;;;21.20;99.80;;;;;;5050824;28;20377;-68
2021/03/03 11:28:30;;;;;;;21.52;14.82;;;21.20;99.60;;;;;;5049979;28;20497;-69
2021/03/03 11:30:55;;;;;;;22.73;14.38;;;21.20;99.50;;;;;;5051689;28;20086;-69
2021/03/03 11:33:21;;;;;;;21.38;14.18;;;21.20;99.50;;;;;;5051148;28;20083;-69
2021/03/03 11:35:47;;;;;;;20.20;13.45;;;21.30;99.40;;;;;;5051026;28;20036;-67
2021/03/03 11:38:14;;;;;;;19.10;13.30;;;21.30;99.80;;;;;;5050547;28;20027;-67
2021/03/03 11:40:40;;;;;;;21.35;13.15;;;21.30;99.40;;;;;;5051704;28;20013;-65
2021/03/03 11:43:06;;;;;;;21.67;12.93;;;21.30;99.70;;;;;;5051499;28;20103;-65
2021/03/03 11:45:31;;;;;;;21.00;12.65;;;21.40;99.40;;;;;;5051328;28;20111;-65
2021/03/03 11:47:57;;;;;;;20.00;12.25;;;21.30;99.30;;;;;;5051527;28;20057;-66
2021/03/03 11:50:23;;;;;;;19.30;11.57;;;21.40;99.40;;;;;;5047664;28;20044;-73
2021/03/03 11:52:49;;;;;;;19.15;12.13;;;21.40;99.90;;;;;;5053370;28;20029;-65
2021/03/03 11:55:15;;;;;;;19.27;11.95;;;21.40;99.90;;;;;;5051467;28;20032;-68
2021/03/03 11:57:40;;;;;;;22.00;12.05;;;21.40;99.90;;;;;;5051117;28;20459;-64
2021/03/03 12:00:12;;;;;;;19.60;12.07;;;21.50;99.90;;;;;;5068073;28;20052;-64
2021/03/03 12:02:38;;;;;;;16.02;11.05;;;21.50;99.90;;;;;;5048745;28;20036;-65
2021/03/03 12:05:05;;;;;;;16.75;11.15;;;21.50;99.80;;;;;;5053850;28;20036;-64
2021/03/03 12:07:30;;;;;;;17.38;10.65;;;21.50;99.90;;;;;;5048703;28;20021;-65
2021/03/03 12:09:56;;;;;;;19.00;11.32;;;21.50;99.90;;;;;;5055338;28;20535;-63
2021/03/03 12:12:22;;;;;;;16.90;10.68;;;21.50;99.90;;;;;;5070743;28;20032;-64
2021/03/03 12:14:48;;;;;;;15.65;10.60;;;21.50;99.90;;;;;;5062798;28;20028;-65
2021/03/03 12:17:13;;;;;;;17.33;10.75;;;21.50;99.80;;;;;;5052152;28;20092;-65
2021/03/03 12:19:39;;;;;;;16.30;10.38;;;21.50;99.80;;;;;;5051700;28;20047;-64
2021/03/03 12:22:05;;;;;;;14.45;10.45;;;21.50;99.80;;;;;;5054211;28;20056;-64
2021/03/03 12:24:30;;;;;;;13.75;8.93;;;21.50;99.80;;;;;;5057275;28;20040;-65
2021/03/03 12:26:56;;;;;;;15.13;10.18;;;21.50;99.70;;;;;;5049101;28;20071;-64
2021/03/03 12:29:22;;;;;;;16.15;9.65;;;21.50;99.70;;;;;;5049664;28;20496;-66
2021/03/03 12:31:47;;;;;;;14.80;9.50;;;21.60;99.70;;;;;;5059602;28;20024;-65
2021/03/03 12:34:13;;;;;;;15.38;9.60;;;21.60;99.70;;;;;;5063961;28;20036;-65
2021/03/03 12:36:39;;;;;;;15.88;9.25;;;21.50;99.70;;;;;;5060379;28;20095;-64